Winedale's Hourly Summary for Thursday, July 5, 2018
Hour Temp
(f)
RH
(%)
Solar Rad.
(MJ/m2)
Rainfall
(in)
Wind
(mph)
7/5/2018 12:00 AM 70 96 0 0 2.1
7/5/2018 1:00 AM 70 96 0 0 2.18
7/5/2018 2:00 AM 70 97 0 0 2.1
7/5/2018 3:00 AM 70 98 0 0 0.58
7/5/2018 4:00 AM 69 98 0 0 1.79
7/5/2018 5:00 AM 70 98 0 0 2.63
7/5/2018 6:00 AM 70 98 0 0 1.63
7/5/2018 7:00 AM 70 99 0.02 0 1.75
7/5/2018 8:00 AM 71 99 0.11 0 1.36
7/5/2018 9:00 AM 72 99 0.35 0 2.2
7/5/2018 10:00 AM 74 89 0.98 0 2.95
7/5/2018 11:00 AM 79 75 2.25 0 3.14
7/5/2018 12:00 PM 83 61 2.79 0 3.67
7/5/2018 1:00 PM 86 55 3.29 0 4.3
7/5/2018 2:00 PM 86 54 2.05 0 4.38
7/5/2018 3:00 PM 88 48 2.88 0 4.79
7/5/2018 4:00 PM 89 46 2.7 0 4.17
7/5/2018 5:00 PM 90 44 1.42 0 3.92
7/5/2018 6:00 PM 91 44 1.67 0 2.46
7/5/2018 7:00 PM 91 43 1.08 0 1.57
7/5/2018 8:00 PM 89 46 0.46 0 1.85
7/5/2018 9:00 PM 84 55 0.05 0 0.04
7/5/2018 10:00 PM 82 67 0 0 0
7/5/2018 11:00 PM 80 76 0 0 0.63
Data Summary 78 74 22.10 0.00 2.34